CONTEST STATUS - Updated: SAT ... 14-APR-18 @ 9 PM EDT

Winter '17 / '18 - Snowfall Forecast Contests

19th Annual 'Regular Season' Snowfall Forecast Contest
- FINAL Results here
1st Place: Brad Yehl
2nd Place: Don Sutherland
3rd Place: NWS ER WFOs
HM: Herb @MAWS

17th Annual 'Season-total' Snowfall Forecast Contest
- FINAL Results here
1st Place: Don Sutherland
2nd Place: Mitchel Volk
3rd Place: Brad Yehl
HM: TQ

----------------------------------------------------
Winter '16 / '17 - Snowfall Forecast Contests
----------------------------------------------------
18th Annual 'Regular Season'
FINAL results here

---
16th Annual 'Season-total'
FINAL results here

Sunday, October 29, 2017

Winter '17 / '18 - First Contact

Post-frontal ... elevation snows INVOF UVM associated with SFC LOWs

Boone ... NC (3146' MSL)
KTNB 291615Z AUTO 30013G25KT 4SM -SN SCT008 BKN014 BKN020 02/01

Richlands ... VA (2653' MSL)
KJFZ 291555Z AUTO 32004KT 3SM -SN SCT004 BKN007 OVC014 00/00 A2972 RMK AO2 T00011001

Wise county ... VA (2684' MSL)
KLNP 291555Z AUTO 31004KT 1 1/2SM -SN OVC003 00/00

Hot Springs ... VA (3793' MSL)
KHSP 291555Z AUTO 29014KT M1/4SM -SN OVC003 02/02

Bluefield ... WV (2856' MSL)
KBLF 291552Z AUTO 31008KT 1 3/4SM -SN BR BKN006 OVC012 00/M01

Bedford county ... PA (1161' MSL)
KHMZ 291555Z AUTO 32006KT 5SM -SN OVC010 07/06

No comments: